This is the latest recevied weather packets stored in our database for station/object KE7JVX-3. If no packets are shown the sender has not sent any weather packets the latest 1 day(s).
| Time | Temp. | Humidity | Pressure | Rain* | Wind** | Luminosity | Snow |
|---|---|---|---|---|---|---|---|
| 1778090069 | 5.56° C | 48% | 1011.7 hPa | 0 mm | - | - | - |
| 1778082270 | 3.89° C | 48% | 1010.8 hPa | 0 mm | - | - | - |
| 1778081669 | 3.89° C | 45% | 1010.7 hPa | 0 mm | - | - | - |
| 1778079872 | 3.33° C | 43% | 1010.5 hPa | 0 mm | - | - | - |
| 1778070868 | 0° C | 57% | 1009.5 hPa | 0 mm | - | - | - |
| 1778067868 | 0° C | 58% | 1009.4 hPa | 0 mm | - | - | - |
| 1778067399 | 0° C | 57% | 1009.2 hPa | 0 mm | - | - | - |
| 1778066146 | 0° C | 57% | 1009.2 hPa | 0 mm | - | - | - |
| 1778064873 | 0.56° C | 58% | 1009.1 hPa | 0 mm | - | - | - |
| 1778063068 | 0.56° C | 57% | 1008.9 hPa | 0 mm | - | - | - |
| 1778062470 | 0.56° C | 57% | 1008.9 hPa | 0 mm | - | - | - |
| 1778061390 | 0.56° C | 57% | 1008.7 hPa | 0 mm | - | - | - |
| 1778061268 | 0.56° C | 57% | 1008.7 hPa | 0 mm | - | - | - |
| 1778060668 | 0.56° C | 57% | 1008.7 hPa | 0 mm | - | - | - |
| 1778059571 | 0.56° C | 59% | 1008.6 hPa | 0 mm | - | - | - |
| 1778059468 | 0.56° C | 59% | 1008.6 hPa | 0 mm | - | - | - |
| 1778058868 | 0.56° C | 59% | 1008.7 hPa | 0 mm | - | - | - |
| 1778058440 | 0.56° C | 59% | 1008.7 hPa | 0 mm | - | - | - |
| 1778058268 | 0.56° C | 59% | 1008.7 hPa | 0 mm | - | - | - |
| 1778057229 | 0.56° C | 60% | 1008.7 hPa | 0 mm | - | - | - |
| 1778057068 | 0.56° C | 60% | 1008.7 hPa | 0 mm | - | - | - |
| 1778055868 | 0.56° C | 58% | 1008.8 hPa | 0 mm | - | - | - |
| 1778055268 | 0.56° C | 56% | 1008.9 hPa | 0 mm | - | - | - |
| 1778054668 | 0.56° C | 56% | 1008.9 hPa | 0 mm | - | - | - |
| 1778054068 | 0.56° C | 56% | 1008.9 hPa | 0 mm | - | - | - |
* Rain latest hour (hover to see other rain measurements)
** Current wind speed in m/s (hover to see current wind gust speed)